Vremea acum in Costesti - Romania

Vrei sa afli care e starea vremii acum in Arges - Romania? Dorim sa iti furnizam starea vremii pentru Arges - Romania. Starea vremii Arges - Romania pentru astazi.

Vremea acum in Costesti

Temperatura: 9.8 °C

Se simte ca: 10 °C
Innorat: 97 %
Precipitatii: 72 %
Presiune atmosferica: 1024 hPa
Umiditate: 80%
Vizibilitate: 17.1 km
Vantul bate din E cu 6.5 km/h

Evolutia vremii in Costesti pe ore

Ora: 00:00
Ploi uşoare
Temperatura: 9.8°C
Sansa de precipitatii: 72%
Ora Descriere Temp Se simte Precipitatii Umiditate Vant
00:00Ploi uşoare9.8°10°72%80%E 6.5 KM/H
01:00Ploi uşoare şi de scurtă durată10.7°11.1°79%80%E 4.7 KM/H
02:00Ploi uşoare11.5°12.1°85%81%E 3.2 KM/H
03:00Noros11.3°11.7°57%81%E 2.5 KM/H
04:00Ploi uşoare11.1°11.3°28%82%E 1.8 KM/H
05:00Noros10.9°10.9°0%82%E 1.1 KM/H
06:00Parțial noros11.1°11.1°0%81%S 0.7 KM/H
07:00Noros11.3°11.3°0%80%W 0.7 KM/H
08:00Parțial noros11.5°11.5°0%79%N 0.4 KM/H
09:00Noros12.2°12.1°0%73%NW 2.5 KM/H
10:00Parțial noros12.8°12.8°0%68%W 4.3 KM/H
11:00Noros13.5°13.4°0%62%WSW 6.5 KM/H
12:00Parțial noros14.4°14.3°0%59%WSW 6.1 KM/H
13:00Noros15.3°15.3°0%55%WSW 5.8 KM/H
14:00Parțial noros16.2°16.2°0%51%W 5.4 KM/H
15:00Parțial noros15.8°15.8°0%54%WSW 5.4 KM/H
16:00Parțial noros15.5°15.5°0%56%WSW 5.8 KM/H
17:00Parțial noros15.1°15.1°0%59%SW 5.8 KM/H
18:00Parțial noros14.2°14.3°0%62%WSW 5.4 KM/H
19:00Parțial noros13.4°13.6°0%65%WSW 4.7 KM/H
20:00Parțial noros12.5°12.8°0%69%W 4.3 KM/H
21:00Parțial noros12.1°12.3°0%71%WNW 4.3 KM/H
22:00Parțial noros11.6°11.7°0%73%NNW 4.7 KM/H
23:00Parțial noros11.2°11.2°0%74%N 4.7 KM/H